Time;durP1;ratioP1;P1;durP2;ratioP2;P2;SDS_P1;SDS_P2;PMS_P1;PMS_P2;Temp;Humidity;BMP_temperature;BMP_pressure;BME280_temperature;BME280_humidity;BME280_pressure;Samples;Min_cycle;Max_cycle;Signal;HPM_P1;HPM_P2
2021/12/05 00:24:27;;;;;;;58.70;35.90;;;;;;;-0.51;72.58;98991.05;107743;1290;23117;-77
2021/12/05 00:27:15;;;;;;;50.10;34.50;;;;;;;-0.48;72.54;98996.89;108089;1288;22112;-75
2021/12/05 00:30:05;;;;;;;55.00;36.10;;;;;;;-0.44;72.63;99002.76;107716;1293;24561;-76
2021/12/05 00:43:55;;;;;;;55.10;37.50;;;;;;;-0.47;72.26;98990.98;107771;1292;22007;-76
2021/12/05 00:46:27;;;;;;;58.50;36.50;;;;;;;-0.54;72.12;98989.25;107888;1289;22350;-77
2021/12/05 00:57:39;;;;;;;54.50;34.80;;;;;;;-0.54;72.18;98986.86;108491;1283;23041;-76
2021/12/05 01:16:47;;;;;;;53.20;34.40;;;;;;;-0.40;72.02;98992.46;108506;1282;21993;-76
2021/12/05 01:19:22;;;;;;;48.00;33.10;;;;;;;-0.40;71.89;98995.34;108324;1282;165504;-76
2021/12/05 01:21:59;;;;;;;50.60;34.70;;;;;;;-0.40;71.84;98991.73;108479;1282;25021;-77
2021/12/05 01:32:38;;;;;;;50.50;33.70;;;;;;;-0.41;71.68;99006.69;108560;1281;21998;-77
2021/12/05 01:35:28;;;;;;;47.70;31.80;;;;;;;-0.38;71.53;99011.45;108416;1283;21992;-76
2021/12/05 01:38:11;;;;;;;45.50;31.30;;;;;;;-0.40;71.35;99011.59;108097;1288;23698;-77
2021/12/05 02:15:55;;;;;;;52.80;34.10;;;;;;;-0.29;70.92;98963.58;108098;1291;23796;-76
2021/12/05 02:43:43;;;;;;;44.60;31.50;;;;;;;-0.16;70.69;98965.58;108587;1281;21995;-76
2021/12/05 02:46:20;;;;;;;50.00;32.20;;;;;;;-0.15;70.57;98966.39;108683;1278;22005;-77
2021/12/05 02:48:54;;;;;;;44.90;30.20;;;;;;;-0.18;70.66;98968.52;108889;1276;23776;-75
2021/12/05 02:51:26;;;;;;;45.60;31.00;;;;;;;-0.17;70.71;98965.84;108863;1275;22019;-77
2021/12/05 02:54:07;;;;;;;46.30;32.70;;;;;;;-0.14;70.68;98965.03;108872;1275;23069;-76
2021/12/05 02:56:45;;;;;;;53.90;33.20;;;;;;;-0.11;70.60;98966.00;109092;1274;21995;-76
2021/12/05 03:00:08;;;;;;;51.70;32.70;;;;;;;-0.09;70.50;98963.24;108945;1275;22385;-77
2021/12/05 03:02:15;;;;;;;52.80;31.80;;;;;;;-0.05;70.52;98964.61;108818;1275;21976;-76
2021/12/05 03:04:50;;;;;;;48.30;32.50;;;;;;;-0.01;70.46;98965.45;108698;1277;22772;-76
2021/12/05 03:07:26;;;;;;;50.40;31.70;;;;;;;0.03;70.48;98968.95;108765;1275;23616;-77
2021/12/05 03:09:56;;;;;;;46.90;31.10;;;;;;;0.08;70.32;98976.63;108726;1275;21999;-76
2021/12/05 03:12:25;;;;;;;46.90;33.20;;;;;;;0.14;70.24;98975.27;108682;1275;22086;-76
2021/12/05 03:15:05;;;;;;;49.50;32.90;;;;;;;0.17;70.29;98978.09;108695;1274;22091;-77
2021/12/05 03:17:36;;;;;;;52.20;33.90;;;;;;;0.18;70.17;98978.04;108968;1274;23660;-78
2021/12/05 03:20:09;;;;;;;50.60;32.90;;;;;;;0.17;70.13;98980.52;109085;1275;22196;-77
2021/12/05 03:22:39;;;;;;;50.20;32.20;;;;;;;0.19;70.13;98976.07;108424;1282;21972;-76
2021/12/05 03:25:11;;;;;;;46.30;33.20;;;;;;;0.20;70.11;98977.16;108452;1282;22008;-76
2021/12/05 03:27:42;;;;;;;49.90;30.80;;;;;;;0.23;70.02;98981.23;108655;1282;22973;-75
2021/12/05 03:30:21;;;;;;;46.90;32.10;;;;;;;0.26;69.99;98983.75;108445;1281;23029;-76
2021/12/05 03:32:53;;;;;;;46.30;30.70;;;;;;;0.30;70.03;98985.13;108186;1287;23016;-76
2021/12/05 03:35:28;;;;;;;41.20;29.50;;;;;;;0.36;69.91;98989.39;108027;1288;23756;-77
2021/12/05 03:37:59;;;;;;;51.00;32.70;;;;;;;0.40;69.90;98991.64;108174;1287;22007;-75
2021/12/05 03:40:32;;;;;;;47.80;32.80;;;;;;;0.44;69.78;98991.52;108280;1280;22003;-76
2021/12/05 03:43:09;;;;;;;44.40;32.30;;;;;;;0.45;69.75;98993.25;108551;1280;21989;-75
2021/12/05 03:45:47;;;;;;;45.70;32.10;;;;;;;0.48;69.69;98994.13;108516;1280;21991;-76
2021/12/05 03:48:18;;;;;;;48.20;31.90;;;;;;;0.49;69.59;98992.92;108550;1279;21995;-76
2021/12/05 03:50:49;;;;;;;46.00;32.70;;;;;;;0.51;69.49;98993.51;108465;1281;23029;-76
2021/12/05 03:53:20;;;;;;;46.50;31.40;;;;;;;0.52;69.43;98993.40;108642;1281;22273;-75
2021/12/05 03:55:55;;;;;;;43.50;31.30;;;;;;;0.54;69.42;98993.72;108500;1281;21995;-76
2021/12/05 03:58:28;;;;;;;48.00;29.80;;;;;;;0.60;69.49;98995.10;108455;1284;23026;-76
2021/12/05 04:01:02;;;;;;;50.80;32.40;;;;;;;0.66;69.44;98997.33;108426;1284;21992;-76
2021/12/05 04:03:35;;;;;;;41.30;30.00;;;;;;;0.69;69.26;98994.40;108241;1284;23125;-75
2021/12/05 04:06:08;;;;;;;43.20;29.90;;;;;;;0.74;69.28;98993.83;108349;1284;23743;-75
2021/12/05 04:08:43;;;;;;;45.50;31.10;;;;;;;0.77;69.16;98995.77;108280;1284;22098;-75
2021/12/05 04:11:55;;;;;;;;;;;;;;;0.79;69.14;98997.23;108518;1284;22032;-76
2021/12/05 04:14:48;;;;;;;51.90;31.90;;;;;;;0.70;69.04;98992.77;108592;1284;23005;-76
2021/12/05 04:17:21;;;;;;;48.60;31.60;;;;;;;0.67;69.16;98997.58;108485;1281;23704;-76
2021/12/05 04:19:52;;;;;;;40.70;29.40;;;;;;;0.71;69.24;99000.73;108604;1281;22038;-77
2021/12/05 04:22:22;;;;;;;48.30;31.20;;;;;;;0.76;69.16;99008.21;108409;1281;23039;-76
2021/12/05 04:25:03;;;;;;;48.30;32.60;;;;;;;0.81;69.16;99006.70;108582;1281;23035;-77
2021/12/05 04:27:45;;;;;;;50.60;32.60;;;;;;;0.87;68.97;99009.81;108517;1283;23612;-76
2021/12/05 04:30:19;;;;;;;47.80;31.70;;;;;;;0.90;68.89;99010.16;108579;1281;23650;-76
2021/12/05 04:32:52;;;;;;;48.30;31.40;;;;;;;0.94;68.82;99015.92;108297;1284;22010;-76
2021/12/05 04:35:22;;;;;;;49.50;31.30;;;;;;;0.96;68.64;99021.60;107747;1291;22003;-77
2021/12/05 04:37:53;;;;;;;42.70;28.30;;;;;;;0.95;68.57;99021.58;107707;1291;22011;-75
2021/12/05 04:40:24;;;;;;;39.80;28.10;;;;;;;0.93;68.66;99020.38;108094;1287;22038;-77
2021/12/05 04:43:09;;;;;;;34.90;26.10;;;;;;;0.90;68.60;99023.07;108210;1288;23614;-76
2021/12/05 04:45:40;;;;;;;44.60;29.90;;;;;;;0.87;68.51;99021.40;108338;1285;22133;-77
2021/12/05 04:48:11;;;;;;;35.60;25.90;;;;;;;0.86;68.53;99018.94;108075;1288;23665;-76
2021/12/05 04:50:44;;;;;;;41.50;28.30;;;;;;;0.86;68.59;99020.67;108390;1282;22031;-76
2021/12/05 04:53:14;;;;;;;33.20;24.70;;;;;;;0.88;68.68;99023.88;108586;1274;22751;-77
2021/12/05 04:55:43;;;;;;;36.50;24.60;;;;;;;0.92;68.75;99024.95;108890;1273;22012;-78
2021/12/05 04:58:15;;;;;;;31.90;21.70;;;;;;;0.97;68.73;99031.48;108829;1274;21969;-77
2021/12/05 05:00:47;;;;;;;26.10;18.90;;;;;;;0.98;68.87;99033.63;108712;1277;23122;-77
2021/12/05 05:03:18;;;;;;;28.70;20.90;;;;;;;1.02;69.02;99034.30;108949;1274;23737;-76
2021/12/05 05:05:52;;;;;;;25.40;19.90;;;;;;;1.08;69.09;99035.95;108690;1274;23566;-76
2021/12/05 05:08:22;;;;;;;23.70;17.90;;;;;;;1.13;69.12;99041.45;108563;1280;24432;-76
2021/12/05 05:10:52;;;;;;;23.40;17.20;;;;;;;1.15;69.22;99041.94;108403;1281;22927;-75
2021/12/05 05:13:21;;;;;;;23.40;16.60;;;;;;;1.14;69.37;99047.54;108248;1284;21990;-76
2021/12/05 05:15:50;;;;;;;20.80;17.80;;;;;;;1.13;69.54;99051.11;108063;1288;22776;-76
2021/12/05 05:18:22;;;;;;;20.50;16.90;;;;;;;1.14;69.71;99055.53;108305;1285;23692;-76
2021/12/05 05:21:07;;;;;;;22.60;18.20;;;;;;;1.19;69.93;99057.33;108284;1285;21982;-76
2021/12/05 05:23:47;;;;;;;21.40;17.00;;;;;;;1.21;69.97;99062.55;107761;1291;22386;-76
2021/12/05 05:50:20;;;;;;;30.30;20.80;;;;;;;0.69;71.78;99088.34;108290;1287;21995;-75
2021/12/05 05:52:50;;;;;;;29.10;21.40;;;;;;;0.62;72.41;99089.14;107995;1290;21999;-75
2021/12/05 05:55:20;;;;;;;31.20;22.40;;;;;;;0.53;72.55;99094.68;108122;1288;23740;-75
2021/12/05 06:00:36;;;;;;;;;;;;;;;0.46;73.33;99098.56;108270;1288;22890;-75
2021/12/05 06:03:20;;;;;;;31.60;24.00;;;;;;;0.29;73.62;99102.78;108064;1290;23706;-76
2021/12/05 06:05:57;;;;;;;35.80;27.20;;;;;;;0.22;74.06;99107.20;108084;1288;21991;-75
2021/12/05 06:08:31;;;;;;;33.50;25.80;;;;;;;0.17;74.43;99104.00;108350;1284;22005;-75
2021/12/05 06:11:14;;;;;;;38.30;27.40;;;;;;;0.13;74.60;99110.23;108385;1285;22160;-75
2021/12/05 06:13:44;;;;;;;35.30;26.90;;;;;;;0.11;74.95;99113.71;108315;1285;23756;-76
2021/12/05 06:16:16;;;;;;;39.80;28.90;;;;;;;0.10;75.27;99109.06;108451;1282;23753;-77
2021/12/05 06:18:56;;;;;;;37.90;29.10;;;;;;;0.10;75.33;99109.81;108413;1282;21990;-76
2021/12/05 06:21:49;;;;;;;36.30;27.90;;;;;;;0.09;75.71;99112.12;108459;1281;22139;-77
2021/12/05 06:24:22;;;;;;;39.80;30.00;;;;;;;0.06;75.88;99116.32;108429;1282;23691;-77
2021/12/05 06:26:57;;;;;;;44.70;33.60;;;;;;;0.07;76.06;99115.09;108550;1282;23078;-76
2021/12/05 06:29:32;;;;;;;42.60;34.20;;;;;;;0.09;76.20;99116.45;108711;1274;23026;-76
2021/12/05 06:46:53;;;;;;;59.80;43.30;;;;;;;0.42;76.93;99133.45;108564;1281;21977;-77
2021/12/05 06:49:23;;;;;;;51.50;40.50;;;;;;;0.52;77.01;99133.90;108613;1282;21968;-77
2021/12/05 06:51:55;;;;;;;54.90;40.70;;;;;;;0.55;76.90;99132.21;108592;1282;23599;-77
2021/12/05 06:54:24;;;;;;;58.70;39.60;;;;;;;0.58;76.74;99135.27;108454;1279;22883;-75
2021/12/05 06:56:54;;;;;;;52.40;36.50;;;;;;;0.56;76.72;99136.43;108730;1274;21967;-76
2021/12/05 06:59:23;;;;;;;47.20;36.40;;;;;;;0.57;76.84;99140.15;109123;1272;23663;-75
2021/12/05 07:01:53;;;;;;;51.20;36.50;;;;;;;0.57;76.75;99146.64;109103;1274;22754;-75
2021/12/05 07:07:18;;;;;;;112.80;86.20;;;;;;;0.48;76.95;99151.52;109106;1273;23608;-76
2021/12/05 07:09:49;;;;;;;57.20;46.10;;;;;;;0.47;77.07;99154.61;108860;1276;22672;-76
2021/12/05 07:42:06;;;;;;;83.70;56.30;;;;;;;0.94;78.26;99166.54;107712;1291;22753;-76
2021/12/05 07:44:48;;;;;;;71.60;50.40;;;;;;;1.01;78.16;99167.34;107734;1292;22062;-76
2021/12/05 07:48:03;;;;;;;66.90;48.40;;;;;;;1.06;78.09;99166.41;107661;1293;23068;-75
2021/12/05 07:54:25;;;;;;;55.80;41.90;;;;;;;1.06;78.07;99173.09;107726;1294;21992;-75
2021/12/05 07:57:30;;;;;;;53.80;42.80;;;;;;;1.08;77.82;99178.02;107774;1294;22010;-77
2021/12/05 08:14:35;;;;;;;70.30;49.30;;;;;;;1.19;77.69;99182.55;108760;1276;21973;-77
2021/12/05 08:17:12;;;;;;;70.90;51.00;;;;;;;1.16;77.73;99179.67;108961;1276;23689;-76
2021/12/05 08:19:47;;;;;;;72.90;55.80;;;;;;;1.19;77.88;99180.33;108759;1276;22071;-77
2021/12/05 08:22:23;;;;;;;67.50;50.60;;;;;;;1.23;78.05;99179.96;108703;1277;21960;-78
2021/12/05 08:25:07;;;;;;;69.70;54.00;;;;;;;1.27;77.94;99179.59;108537;1281;23788;-77
2021/12/05 08:27:48;;;;;;;55.20;43.10;;;;;;;1.27;77.89;99179.92;108580;1282;21987;-76
2021/12/05 08:30:35;;;;;;;67.00;48.70;;;;;;;1.23;77.54;99181.37;108509;1280;23046;-77
2021/12/05 08:34:23;;;;;;;59.90;43.50;;;;;;;1.19;77.71;99183.26;108472;1282;22008;-77
2021/12/05 09:28:42;;;;;;;67.00;54.50;;;;;;;1.65;77.19;99217.32;108336;1287;23049;-77
2021/12/05 10:06:43;;;;;;;76.50;64.10;;;;;;;1.68;77.38;99225.21;107670;1293;21999;-78
2021/12/05 10:38:53;;;;;;;75.70;61.10;;;;;;;1.92;76.82;99228.96;107611;1294;22005;-77
2021/12/05 10:42:57;;;;;;;;;;;;;;;;;;;;;
2021/12/05 10:46:24;;;;;;;76.10;58.40;;;;;;;2.08;77.13;99228.52;107961;1292;22662;-76
2021/12/05 10:49:02;;;;;;;71.40;58.90;;;;;;;2.04;76.79;99225.24;107689;1292;22066;-80
2021/12/05 10:51:57;;;;;;;76.10;63.70;;;;;;;2.04;76.86;99222.80;107775;1291;23056;-79
2021/12/05 10:55:11;;;;;;;76.60;61.10;;;;;;;2.10;77.04;99220.65;108393;1285;21980;-80
2021/12/05 10:57:54;;;;;;;76.10;59.70;;;;;;;2.16;77.04;99215.98;108444;1281;23691;-79
2021/12/05 11:00:23;;;;;;;72.40;59.30;;;;;;;2.19;76.91;99216.23;108551;1280;21989;-79
2021/12/05 11:03:13;;;;;;;69.00;58.20;;;;;;;2.18;76.71;99219.77;108553;1281;22055;-79
2021/12/05 11:05:48;;;;;;;69.60;60.20;;;;;;;2.13;76.44;99219.31;108488;1281;23113;-80
2021/12/05 11:08:39;;;;;;;92.60;68.40;;;;;;;2.10;76.44;99220.67;108735;1281;23033;-79
2021/12/05 11:11:18;;;;;;;76.50;61.10;;;;;;;2.05;76.33;99225.33;108509;1281;22026;-79
2021/12/05 11:13:55;;;;;;;95.10;75.40;;;;;;;2.05;76.60;99228.61;108449;1280;21989;-80
2021/12/05 11:17:13;;;;;;;76.40;61.70;;;;;;;2.05;76.46;99229.42;108533;1278;21964;-79
2021/12/05 11:20:00;;;;;;;139.70;115.00;;;;;;;1.97;76.24;99231.58;108538;1281;22477;-79
2021/12/05 11:22:51;;;;;;;80.70;69.40;;;;;;;1.93;76.25;99232.34;108142;1287;23042;-79
2021/12/05 11:25:30;;;;;;;83.00;69.30;;;;;;;1.88;76.35;99237.47;108209;1285;23104;-79
2021/12/05 11:28:08;;;;;;;82.30;64.80;;;;;;;1.81;76.38;99235.31;108203;1285;22047;-79
2021/12/05 11:30:44;;;;;;;112.60;90.60;;;;;;;1.75;76.47;99242.06;108256;1285;23632;-79
2021/12/05 11:33:22;;;;;;;79.40;62.40;;;;;;;1.77;76.72;99247.64;108365;1285;22990;-80
2021/12/05 11:36:03;;;;;;;74.30;61.60;;;;;;;1.76;76.77;99246.19;108555;1285;23824;-79
2021/12/05 11:38:44;;;;;;;;;;;;;;;1.75;76.74;99248.55;108354;1282;22019;-78
2021/12/05 11:41:25;;;;;;;124.40;76.10;;;;;;;1.62;76.85;99248.48;108508;1282;22442;-77
2021/12/05 11:43:59;;;;;;;129.10;88.60;;;;;;;1.59;76.99;99249.05;108409;1282;21996;-80
2021/12/05 11:46:35;;;;;;;;;;;;;;;1.64;77.33;99247.06;108513;1281;22714;-77
2021/12/05 11:49:10;;;;;;;95.90;70.60;;;;;;;1.66;77.67;99252.80;108289;1286;22332;-76
2021/12/05 11:51:58;;;;;;;87.50;68.50;;;;;;;1.69;77.40;99247.13;108119;1287;22026;-78
2021/12/05 11:54:29;;;;;;;86.40;69.50;;;;;;;1.67;77.16;99250.95;108385;1286;21994;-77
2021/12/05 11:57:27;;;;;;;86.20;68.30;;;;;;;1.72;77.54;99256.09;108387;1287;21988;-78
2021/12/05 12:00:14;;;;;;;81.00;67.50;;;;;;;1.79;77.58;99256.80;108234;1287;21993;-77
2021/12/05 12:02:48;;;;;;;95.20;73.80;;;;;;;1.89;77.62;99257.16;107977;1291;22284;-77
2021/12/05 12:05:28;;;;;;;88.30;71.40;;;;;;;1.96;77.48;99253.80;107789;1289;23838;-79
2021/12/05 12:08:07;;;;;;;94.00;75.00;;;;;;;1.98;77.24;99248.88;108327;1283;22024;-77
2021/12/05 12:10:46;;;;;;;86.40;69.20;;;;;;;2.02;77.45;99255.27;108440;1283;22017;-77
2021/12/05 12:13:35;;;;;;;93.40;74.60;;;;;;;2.04;77.03;99259.73;108500;1283;21977;-78
2021/12/05 12:16:08;;;;;;;96.70;73.20;;;;;;;2.02;77.02;99260.31;108408;1283;23046;-77
2021/12/05 12:18:47;;;;;;;108.10;81.80;;;;;;;2.03;77.05;99256.41;108441;1283;24382;-77
2021/12/05 12:21:26;;;;;;;107.10;82.10;;;;;;;2.01;76.84;99261.47;108231;1283;23587;-77
2021/12/05 12:23:57;;;;;;;97.50;75.40;;;;;;;2.01;76.79;99259.89;108574;1283;23608;-80
2021/12/05 12:26:40;;;;;;;104.80;82.50;;;;;;;2.00;76.87;99261.88;108224;1287;22300;-76
2021/12/05 12:29:11;;;;;;;;;;;;;;;1.95;76.67;99261.98;108319;1287;23060;-77
2021/12/05 12:31:47;;;;;;;99.50;72.60;;;;;;;1.82;76.65;99263.87;108377;1287;22006;-78
2021/12/05 12:34:23;;;;;;;93.00;73.70;;;;;;;1.74;76.73;99264.73;108195;1287;22044;-77
2021/12/05 12:37:01;;;;;;;93.50;71.90;;;;;;;1.72;76.97;99254.51;108348;1286;22952;-77
2021/12/05 12:39:38;;;;;;;97.00;76.20;;;;;;;1.73;77.09;99253.23;108513;1281;21960;-78
2021/12/05 12:42:13;;;;;;;109.80;85.40;;;;;;;1.72;77.03;99258.84;108678;1280;22023;-77
2021/12/05 12:45:06;;;;;;;103.60;77.90;;;;;;;1.74;77.21;99263.36;108832;1276;22088;-77
2021/12/05 12:47:55;;;;;;;96.00;79.20;;;;;;;1.73;77.09;99269.16;108944;1275;21992;-76
2021/12/05 12:50:50;;;;;;;119.20;94.20;;;;;;;1.70;77.08;99267.19;108922;1275;21981;-76
2021/12/05 12:53:29;;;;;;;115.10;96.70;;;;;;;1.67;77.20;99275.79;108919;1275;23685;-76
2021/12/05 12:56:18;;;;;;;104.20;85.20;;;;;;;1.64;77.19;99274.12;108549;1282;21991;-78
2021/12/05 12:59:00;;;;;;;101.70;83.70;;;;;;;1.59;77.17;99274.43;108489;1284;23822;-77
2021/12/05 13:02:01;;;;;;;102.80;82.10;;;;;;;1.58;77.43;99281.06;108508;1282;22028;-78
2021/12/05 13:10:37;;;;;;;101.60;81.10;;;;;;;1.65;77.54;99291.95;108376;1288;21987;-76
2021/12/05 13:13:25;;;;;;;114.40;94.40;;;;;;;1.71;77.72;99291.04;108277;1288;23630;-77
2021/12/05 13:16:15;;;;;;;116.50;97.30;;;;;;;1.75;77.62;99292.98;108594;1282;23042;-76
2021/12/05 13:19:05;;;;;;;105.80;90.10;;;;;;;1.77;77.65;99292.08;108583;1282;21979;-76
2021/12/05 13:21:43;;;;;;;105.50;84.30;;;;;;;1.81;77.65;99297.61;108489;1282;23714;-77
2021/12/05 13:24:31;;;;;;;115.50;92.10;;;;;;;1.81;77.59;99302.14;108458;1282;21983;-77
2021/12/05 13:27:05;;;;;;;101.70;80.90;;;;;;;1.81;77.54;99300.04;108628;1281;23593;-76
2021/12/05 13:29:50;;;;;;;95.80;80.40;;;;;;;1.82;77.62;99299.09;108594;1281;21988;-77
2021/12/05 13:32:25;;;;;;;95.40;76.90;;;;;;;1.85;77.64;99298.83;108578;1281;22091;-77
2021/12/05 13:35:12;;;;;;;98.60;77.80;;;;;;;1.90;77.80;99296.27;108550;1281;21982;-76
2021/12/05 13:37:48;;;;;;;102.70;79.90;;;;;;;1.89;77.43;99299.31;108705;1278;22039;-76
2021/12/05 13:40:25;;;;;;;88.00;70.30;;;;;;;1.87;77.40;99299.52;108678;1281;23740;-76
2021/12/05 13:43:06;;;;;;;90.40;73.40;;;;;;;1.84;77.39;99305.15;108455;1283;22093;-76
2021/12/05 13:45:43;;;;;;;98.70;75.40;;;;;;;1.79;77.35;99306.45;108539;1282;22266;-76
2021/12/05 13:48:34;;;;;;;93.50;75.30;;;;;;;1.77;77.33;99309.23;108592;1281;22227;-76
2021/12/05 13:51:05;;;;;;;96.60;76.00;;;;;;;1.72;77.34;99311.10;108668;1277;23018;-76
2021/12/05 13:53:44;;;;;;;103.90;77.40;;;;;;;1.71;77.50;99309.06;108942;1277;22850;-76
2021/12/05 13:56:21;;;;;;;102.40;79.90;;;;;;;1.72;77.56;99306.05;108960;1277;24315;-78
2021/12/05 13:59:05;;;;;;;101.90;78.80;;;;;;;1.76;77.73;99306.73;108864;1277;23030;-78
2021/12/05 14:01:53;;;;;;;99.40;79.50;;;;;;;1.78;77.67;99310.55;108868;1277;22852;-76
2021/12/05 14:04:27;;;;;;;98.70;77.00;;;;;;;1.76;77.51;99312.70;108772;1277;21992;-76
2021/12/05 14:07:09;;;;;;;97.40;73.90;;;;;;;1.76;77.63;99311.98;108831;1279;23623;-76
2021/12/05 14:09:43;;;;;;;93.40;74.00;;;;;;;1.75;77.50;99318.09;108433;1284;21987;-75
2021/12/05 14:12:28;;;;;;;85.60;71.50;;;;;;;1.67;77.30;99319.32;108408;1284;23579;-77
2021/12/05 14:15:06;;;;;;;86.60;71.50;;;;;;;1.59;77.25;99322.52;108177;1287;23012;-77
2021/12/05 14:17:41;;;;;;;90.30;74.40;;;;;;;1.54;77.50;99326.38;108053;1287;22002;-77
2021/12/05 14:20:13;;;;;;;88.00;74.00;;;;;;;1.52;77.52;99329.85;108369;1287;21982;-77
2021/12/05 14:22:46;;;;;;;95.70;75.80;;;;;;;1.55;77.78;99334.16;108293;1287;22094;-77
2021/12/05 14:25:20;;;;;;;102.50;77.90;;;;;;;1.57;77.74;99336.77;108306;1286;22006;-77
2021/12/05 14:28:02;;;;;;;96.40;83.30;;;;;;;1.59;77.86;99340.66;108426;1281;21998;-77
2021/12/05 14:30:35;;;;;;;88.20;74.60;;;;;;;1.60;77.81;99345.48;108582;1281;23224;-76
2021/12/05 14:33:04;;;;;;;;;;;;;;;1.62;77.93;99353.45;108793;1275;21963;-76
2021/12/05 14:35:39;;;;;;;95.20;78.10;;;;;;;1.56;77.95;99352.41;108934;1275;23690;-76
2021/12/05 14:38:09;;;;;;;106.00;88.60;;;;;;;1.57;78.01;99352.52;108690;1277;23818;-77
2021/12/05 14:40:40;;;;;;;90.50;75.70;;;;;;;1.60;78.12;99357.14;108673;1275;23168;-76
2021/12/05 14:43:17;;;;;;;85.80;73.00;;;;;;;1.62;78.01;99358.82;109031;1275;22082;-76
2021/12/05 14:46:01;;;;;;;88.60;71.50;;;;;;;1.63;78.02;99358.40;108830;1277;21987;-77
2021/12/05 14:48:31;;;;;;;95.10;75.60;;;;;;;1.62;77.88;99360.36;108884;1275;22260;-81
2021/12/05 14:51:02;;;;;;;93.60;74.80;;;;;;;1.61;77.94;99362.44;108640;1280;22435;-77
2021/12/05 14:53:31;;;;;;;91.20;74.60;;;;;;;1.58;77.86;99364.20;108494;1280;22529;-77
2021/12/05 14:56:01;;;;;;;100.30;80.80;;;;;;;1.56;77.84;99367.15;108591;1280;22085;-77
2021/12/05 14:58:31;;;;;;;98.00;81.20;;;;;;;1.55;77.98;99371.04;108690;1279;22026;-77
2021/12/05 15:01:00;;;;;;;89.00;75.60;;;;;;;1.55;77.97;99374.23;108585;1280;23612;-76
2021/12/05 15:03:33;;;;;;;97.30;77.80;;;;;;;1.55;78.01;99375.64;108517;1280;23032;-77
2021/12/05 15:06:07;;;;;;;94.90;77.40;;;;;;;1.50;77.84;99376.36;108649;1280;23717;-77
2021/12/05 15:08:37;;;;;;;93.90;79.60;;;;;;;1.46;77.96;99377.27;108400;1282;22012;-77
2021/12/05 15:11:08;;;;;;;96.60;79.20;;;;;;;1.45;78.00;99380.08;108542;1282;24303;-78
2021/12/05 15:13:38;;;;;;;98.30;79.70;;;;;;;1.45;78.17;99378.91;108618;1282;23717;-77
2021/12/05 15:16:07;;;;;;;100.50;81.00;;;;;;;1.44;78.05;99374.98;108623;1281;22326;-76
2021/12/05 15:18:39;;;;;;;99.30;78.20;;;;;;;1.41;78.04;99371.27;108689;1281;23740;-77
2021/12/05 15:21:08;;;;;;;100.90;79.40;;;;;;;1.39;78.14;99369.30;108528;1282;22044;-77
2021/12/05 15:23:40;;;;;;;99.20;78.30;;;;;;;1.38;78.21;99369.79;108583;1281;23637;-77
2021/12/05 15:26:11;;;;;;;93.00;75.20;;;;;;;1.35;78.16;99374.55;108749;1275;23072;-76
2021/12/05 15:28:41;;;;;;;97.90;76.70;;;;;;;1.31;78.18;99372.83;108940;1275;24119;-76
2021/12/05 15:31:10;;;;;;;98.80;77.40;;;;;;;1.28;78.22;99377.41;108977;1275;22026;-77
2021/12/05 15:33:40;;;;;;;99.90;76.10;;;;;;;1.26;78.30;99378.79;109097;1275;21982;-76
2021/12/05 15:36:12;;;;;;;102.00;78.30;;;;;;;1.24;78.32;99377.61;108910;1275;22010;-76
2021/12/05 15:38:41;;;;;;;103.90;77.90;;;;;;;1.22;78.44;99378.59;109158;1275;23038;-77
2021/12/05 15:41:15;;;;;;;99.10;75.80;;;;;;;1.21;78.55;99383.76;108780;1275;22062;-76
2021/12/05 15:43:45;;;;;;;95.90;73.60;;;;;;;1.22;78.68;99389.38;108891;1275;23676;-76
2021/12/05 15:46:14;;;;;;;95.40;75.10;;;;;;;1.21;78.56;99394.48;108858;1276;22050;-78
2021/12/05 15:48:48;;;;;;;96.60;77.20;;;;;;;1.22;78.66;99402.41;108563;1282;21991;-76
2021/12/05 15:51:18;;;;;;;90.70;72.20;;;;;;;1.23;78.56;99409.65;108665;1281;23111;-77
2021/12/05 15:53:47;;;;;;;97.40;73.90;;;;;;;1.23;78.72;99415.48;108389;1285;23151;-76
2021/12/05 15:56:20;;;;;;;95.90;75.60;;;;;;;1.24;78.78;99417.61;108442;1285;23059;-79
2021/12/05 15:59:02;;;;;;;94.70;77.20;;;;;;;1.25;78.70;99416.14;108421;1285;23749;-77
2021/12/05 16:01:33;;;;;;;107.00;83.30;;;;;;;1.26;78.84;99415.73;108207;1286;23640;-76
2021/12/05 16:04:19;;;;;;;91.00;72.30;;;;;;;1.26;78.82;99415.36;108411;1285;22101;-76
2021/12/05 16:06:50;;;;;;;101.40;75.80;;;;;;;1.25;78.66;99421.21;108397;1285;21999;-77
2021/12/05 16:09:24;;;;;;;101.70;79.30;;;;;;;1.21;78.67;99419.66;108460;1284;22034;-76
2021/12/05 16:12:11;;;;;;;88.50;71.80;;;;;;;1.21;78.81;99422.46;108810;1275;21978;-77
2021/12/05 16:14:48;;;;;;;103.50;76.60;;;;;;;1.18;78.75;99424.37;108947;1275;23675;-76
2021/12/05 16:17:27;;;;;;;98.30;76.70;;;;;;;1.16;78.78;99430.43;109005;1277;22100;-78
2021/12/05 16:20:19;;;;;;;101.10;78.90;;;;;;;1.15;78.87;99432.23;109090;1275;23183;-76
2021/12/05 16:23:16;;;;;;;109.20;78.40;;;;;;;1.16;79.00;99432.58;109081;1277;23565;-77
2021/12/05 16:26:03;;;;;;;117.30;81.70;;;;;;;1.19;79.11;99435.42;108891;1275;23631;-77
2021/12/05 16:28:59;;;;;;;113.30;82.50;;;;;;;1.20;79.08;99433.27;109158;1275;22007;-76
2021/12/05 16:31:32;;;;;;;100.20;78.10;;;;;;;1.20;79.06;99434.34;108630;1281;22057;-76
2021/12/05 16:34:15;;;;;;;174.20;110.10;;;;;;;1.18;79.04;99435.64;108739;1281;23512;-78
2021/12/05 16:36:53;;;;;;;181.00;115.70;;;;;;;1.16;79.03;99436.31;108603;1281;22009;-77
2021/12/05 16:39:32;;;;;;;165.90;105.00;;;;;;;1.19;79.09;99440.13;108483;1282;22571;-77
2021/12/05 16:42:07;;;;;;;124.50;85.60;;;;;;;1.19;79.14;99444.66;108562;1281;23153;-77
2021/12/05 16:44:39;;;;;;;128.80;85.70;;;;;;;1.15;79.01;99445.93;108757;1281;21996;-78
2021/12/05 16:47:18;;;;;;;129.90;85.20;;;;;;;1.15;79.18;99449.08;108602;1281;22012;-77
2021/12/05 16:49:55;;;;;;;126.90;88.90;;;;;;;1.16;79.12;99447.95;108733;1275;23730;-76
2021/12/05 16:52:31;;;;;;;128.30;84.90;;;;;;;1.13;79.09;99443.75;108880;1277;23081;-77
2021/12/05 16:55:14;;;;;;;124.90;87.30;;;;;;;1.11;79.16;99442.84;108882;1275;22021;-77
2021/12/05 16:57:56;;;;;;;130.00;93.00;;;;;;;1.11;79.23;99444.78;108861;1277;21982;-76
2021/12/05 17:00:30;;;;;;;126.60;90.90;;;;;;;1.11;79.29;99448.89;108938;1275;22034;-77
2021/12/05 17:03:05;;;;;;;125.40;91.20;;;;;;;1.11;79.30;99453.42;109033;1275;21999;-78
2021/12/05 17:05:47;;;;;;;130.60;91.90;;;;;;;1.13;79.46;99455.66;108967;1275;21976;-77
2021/12/05 17:08:27;;;;;;;130.70;90.70;;;;;;;1.13;79.32;99456.56;108947;1275;23781;-77
2021/12/05 17:11:03;;;;;;;130.00;88.50;;;;;;;1.09;79.24;99456.23;108836;1277;22007;-77
2021/12/05 17:13:42;;;;;;;118.30;83.60;;;;;;;1.06;79.27;99467.08;108899;1277;23731;-77
2021/12/05 17:16:20;;;;;;;133.50;90.50;;;;;;;0.99;79.16;99468.33;108890;1275;22109;-78
2021/12/05 17:19:07;;;;;;;129.00;86.10;;;;;;;0.94;79.33;99476.20;108925;1275;203104;-78
2021/12/05 17:21:47;;;;;;;130.20;92.70;;;;;;;0.91;79.41;99480.55;109178;1275;22998;-78
2021/12/05 17:24:26;;;;;;;135.20;88.80;;;;;;;0.93;79.54;99481.10;108996;1275;22461;-76
2021/12/05 17:27:05;;;;;;;137.10;95.20;;;;;;;0.93;79.50;99486.46;108940;1275;23030;-77
2021/12/05 17:29:43;;;;;;;126.50;88.90;;;;;;;0.94;79.58;99487.13;108795;1275;22002;-78
2021/12/05 17:32:20;;;;;;;125.70;87.60;;;;;;;0.91;79.51;99484.75;108936;1275;23039;-76
2021/12/05 17:34:57;;;;;;;120.10;84.20;;;;;;;0.89;79.63;99487.20;108953;1277;21996;-77
2021/12/05 17:37:30;;;;;;;114.40;82.10;;;;;;;0.88;79.68;99489.19;109147;1275;21978;-78
2021/12/05 17:40:03;;;;;;;124.60;85.10;;;;;;;0.86;79.69;99490.02;108962;1277;21969;-78
2021/12/05 17:42:33;;;;;;;120.40;83.00;;;;;;;0.84;79.72;99491.22;108918;1275;22436;-78
2021/12/05 17:45:07;;;;;;;113.50;79.00;;;;;;;0.81;79.68;99492.86;108922;1275;22675;-78
2021/12/05 17:47:37;;;;;;;117.10;80.10;;;;;;;0.78;79.74;99493.48;108883;1277;24152;-77
2021/12/05 17:50:23;;;;;;;126.30;87.90;;;;;;;0.75;79.75;99494.42;109064;1275;22449;-78